sensor_id;sensor_type;location;lat;lon;timestamp;pressure;altitude;pressure_sealevel;temperature;humidity
31403;BME280;18039;52.188;21.024;2023-02-20T00:01:31;77807.34;;;-141.45;84.77
31403;BME280;18039;52.188;21.024;2023-02-20T00:03:59;77805.31;;;-141.45;85.16
31403;BME280;18039;52.188;21.024;2023-02-20T00:06:27;77803.28;;;-141.45;84.99
31403;BME280;18039;52.188;21.024;2023-02-20T00:08:55;77809.38;;;-141.45;84.80
31403;BME280;18039;52.188;21.024;2023-02-20T00:11:22;77801.25;;;-141.45;84.48
31403;BME280;18039;52.188;21.024;2023-02-20T00:13:50;77803.28;;;-141.45;84.30
31403;BME280;18039;52.188;21.024;2023-02-20T00:16:18;77793.16;;;-141.45;84.40
31403;BME280;18039;52.188;21.024;2023-02-20T00:18:46;77789.09;;;-141.45;83.29
31403;BME280;18039;52.188;21.024;2023-02-20T00:21:14;77787.06;;;-141.45;83.63
31403;BME280;18039;52.188;21.024;2023-02-20T00:23:42;77780.97;;;-141.45;82.87
31403;BME280;18039;52.188;21.024;2023-02-20T00:26:10;77776.94;;;-141.45;82.09
31403;BME280;18039;52.188;21.024;2023-02-20T00:28:42;77772.88;;;-141.45;82.11
31403;BME280;18039;52.188;21.024;2023-02-20T00:31:14;77774.91;;;-141.45;82.57
31403;BME280;18039;52.188;21.024;2023-02-20T00:33:43;77776.94;;;-141.45;82.96
31403;BME280;18039;52.188;21.024;2023-02-20T00:36:18;77774.91;;;-141.45;82.04
31403;BME280;18039;52.188;21.024;2023-02-20T00:38:46;77764.75;;;-141.45;81.65
31403;BME280;18039;52.188;21.024;2023-02-20T00:41:14;77764.75;;;-141.45;81.45
31403;BME280;18039;52.188;21.024;2023-02-20T00:43:42;77768.81;;;-141.45;81.40
31403;BME280;18039;52.188;21.024;2023-02-20T00:46:11;77764.75;;;-141.45;81.14
31403;BME280;18039;52.188;21.024;2023-02-20T00:48:41;77780.97;;;-141.45;81.09
31403;BME280;18039;52.188;21.024;2023-02-20T00:51:28;77760.69;;;-141.45;79.79
31403;BME280;18039;52.188;21.024;2023-02-20T00:53:59;77768.81;;;-141.45;79.12
31403;BME280;18039;52.188;21.024;2023-02-20T00:56:26;77770.84;;;-141.45;79.46
31403;BME280;18039;52.188;21.024;2023-02-20T00:58:56;77772.88;;;-141.45;79.52
31403;BME280;18039;52.188;21.024;2023-02-20T01:01:25;77772.88;;;-141.45;79.68
31403;BME280;18039;52.188;21.024;2023-02-20T01:03:53;77760.69;;;-141.45;79.81
31403;BME280;18039;52.188;21.024;2023-02-20T01:06:20;77776.94;;;-141.45;79.92
31403;BME280;18039;52.188;21.024;2023-02-20T01:08:50;77764.75;;;-141.45;79.24
31403;BME280;18039;52.188;21.024;2023-02-20T01:11:20;77754.63;;;-141.45;79.24
31403;BME280;18039;52.188;21.024;2023-02-20T01:13:47;77770.84;;;-141.45;78.73
31403;BME280;18039;52.188;21.024;2023-02-20T01:16:14;77760.69;;;-141.45;78.98
31403;BME280;18039;52.188;21.024;2023-02-20T01:18:42;77748.53;;;-141.45;78.87
31403;BME280;18039;52.188;21.024;2023-02-20T01:21:09;77752.59;;;-141.45;78.81
31403;BME280;18039;52.188;21.024;2023-02-20T01:23:36;77756.66;;;-141.45;78.72
31403;BME280;18039;52.188;21.024;2023-02-20T01:26:03;77760.69;;;-141.45;78.78
31403;BME280;18039;52.188;21.024;2023-02-20T01:28:31;77746.50;;;-141.45;78.51
31403;BME280;18039;52.188;21.024;2023-02-20T01:30:58;77736.38;;;-141.45;78.98
31403;BME280;18039;52.188;21.024;2023-02-20T01:33:27;77732.31;;;-141.45;78.74
31403;BME280;18039;52.188;21.024;2023-02-20T01:35:54;77732.31;;;-141.45;78.93
31403;BME280;18039;52.188;21.024;2023-02-20T01:38:22;77744.47;;;-141.45;78.79
31403;BME280;18039;52.188;21.024;2023-02-20T01:40:49;77736.38;;;-141.45;79.24
31403;BME280;18039;52.188;21.024;2023-02-20T01:43:17;77734.34;;;-141.45;79.31
31403;BME280;18039;52.188;21.024;2023-02-20T01:45:44;77728.25;;;-141.45;78.89
31403;BME280;18039;52.188;21.024;2023-02-20T01:48:24;77748.53;;;-141.45;79.39
31403;BME280;18039;52.188;21.024;2023-02-20T01:50:55;77730.28;;;-141.45;79.01
31403;BME280;18039;52.188;21.024;2023-02-20T01:53:25;77718.13;;;-141.45;78.63
31403;BME280;18039;52.188;21.024;2023-02-20T01:55:58;77720.16;;;-141.45;79.04
31403;BME280;18039;52.188;21.024;2023-02-20T01:58:35;77720.16;;;-141.45;78.76
31403;BME280;18039;52.188;21.024;2023-02-20T02:01:08;77716.09;;;-141.45;78.82
31403;BME280;18039;52.188;21.024;2023-02-20T02:03:38;77722.19;;;-141.45;78.80
31403;BME280;18039;52.188;21.024;2023-02-20T02:06:09;77720.16;;;-141.45;79.00
31403;BME280;18039;52.188;21.024;2023-02-20T02:08:40;77720.16;;;-141.45;78.76
31403;BME280;18039;52.188;21.024;2023-02-20T02:11:13;77707.97;;;-141.45;78.60
31403;BME280;18039;52.188;21.024;2023-02-20T02:13:42;77712.03;;;-141.45;78.81
31403;BME280;18039;52.188;21.024;2023-02-20T02:19:24;77699.88;;;-141.45;78.72
31403;BME280;18039;52.188;21.024;2023-02-20T02:23:07;77703.94;;;-141.45;78.45
31403;BME280;18039;52.188;21.024;2023-02-20T02:33:59;77701.91;;;-141.45;79.26
31403;BME280;18039;52.188;21.024;2023-02-20T02:45:06;77691.75;;;-141.45;78.42
31403;BME280;18039;52.188;21.024;2023-02-20T02:47:47;77695.81;;;-141.45;78.37
31403;BME280;18039;52.188;21.024;2023-02-20T02:50:21;77683.66;;;-141.45;78.24
31403;BME280;18039;52.188;21.024;2023-02-20T02:52:51;77699.88;;;-141.45;78.91
31403;BME280;18039;52.188;21.024;2023-02-20T02:55:22;77699.88;;;-141.45;78.76
31403;BME280;18039;52.188;21.024;2023-02-20T02:57:50;77695.81;;;-141.45;78.92
31403;BME280;18039;52.188;21.024;2023-02-20T03:00:21;77710.00;;;-141.45;79.44
31403;BME280;18039;52.188;21.024;2023-02-20T03:03:11;77705.94;;;-141.45;79.83
31403;BME280;18039;52.188;21.024;2023-02-20T03:05:43;77712.03;;;-141.45;79.96
31403;BME280;18039;52.188;21.024;2023-02-20T03:08:39;77712.03;;;-141.45;79.24
31403;BME280;18039;52.188;21.024;2023-02-20T03:11:19;77720.16;;;-141.45;79.67
31403;BME280;18039;52.188;21.024;2023-02-20T03:14:08;77720.16;;;-141.45;79.95
31403;BME280;18039;52.188;21.024;2023-02-20T03:19:40;77716.09;;;-141.45;79.87
31403;BME280;18039;52.188;21.024;2023-02-20T03:22:22;77712.03;;;-141.45;79.75
31403;BME280;18039;52.188;21.024;2023-02-20T03:24:53;77712.03;;;-141.45;79.36
31403;BME280;18039;52.188;21.024;2023-02-20T03:33:35;77703.94;;;-141.45;78.87
31403;BME280;18039;52.188;21.024;2023-02-20T03:36:27;77712.03;;;-141.45;79.51
31403;BME280;18039;52.188;21.024;2023-02-20T03:39:23;77716.09;;;-141.45;79.45
31403;BME280;18039;52.188;21.024;2023-02-20T03:42:12;77712.03;;;-141.45;79.31
31403;BME280;18039;52.188;21.024;2023-02-20T03:45:07;77710.00;;;-141.45;79.76
31403;BME280;18039;52.188;21.024;2023-02-20T03:47:39;77705.94;;;-141.45;79.45
31403;BME280;18039;52.188;21.024;2023-02-20T03:50:11;77712.03;;;-141.45;79.67
31403;BME280;18039;52.188;21.024;2023-02-20T03:52:58;77722.19;;;-141.45;79.55
31403;BME280;18039;52.188;21.024;2023-02-20T03:55:26;77720.16;;;-141.45;80.08
31403;BME280;18039;52.188;21.024;2023-02-20T03:57:58;77716.09;;;-141.45;79.90
31403;BME280;18039;52.188;21.024;2023-02-20T04:00:30;77724.19;;;-141.45;80.25
31403;BME280;18039;52.188;21.024;2023-02-20T04:03:02;77726.22;;;-141.45;80.57
31403;BME280;18039;52.188;21.024;2023-02-20T04:05:40;77724.19;;;-141.45;80.23
31403;BME280;18039;52.188;21.024;2023-02-20T04:08:26;77728.25;;;-141.45;80.33
31403;BME280;18039;52.188;21.024;2023-02-20T04:11:01;77724.19;;;-141.45;80.31
31403;BME280;18039;52.188;21.024;2023-02-20T04:13:30;77728.25;;;-141.45;80.76
31403;BME280;18039;52.188;21.024;2023-02-20T04:16:00;77732.31;;;-141.45;81.26
31403;BME280;18039;52.188;21.024;2023-02-20T04:18:28;77736.38;;;-141.45;81.46
31403;BME280;18039;52.188;21.024;2023-02-20T04:20:58;77740.44;;;-141.45;81.24
31403;BME280;18039;52.188;21.024;2023-02-20T04:23:35;77734.34;;;-141.45;81.83
31403;BME280;18039;52.188;21.024;2023-02-20T04:26:07;77736.38;;;-141.45;81.97
31403;BME280;18039;52.188;21.024;2023-02-20T04:28:38;77732.31;;;-141.45;81.78
31403;BME280;18039;52.188;21.024;2023-02-20T04:31:06;77732.31;;;-141.45;81.73
31403;BME280;18039;52.188;21.024;2023-02-20T04:33:35;77738.41;;;-141.45;81.95
31403;BME280;18039;52.188;21.024;2023-02-20T04:36:09;77730.28;;;-141.45;81.89
31403;BME280;18039;52.188;21.024;2023-02-20T04:38:37;77732.31;;;-141.45;82.15
31403;BME280;18039;52.188;21.024;2023-02-20T04:41:08;77724.19;;;-141.45;82.10
31403;BME280;18039;52.188;21.024;2023-02-20T04:43:35;77718.13;;;-141.45;82.30
31403;BME280;18039;52.188;21.024;2023-02-20T04:46:02;77724.19;;;-141.45;82.17
31403;BME280;18039;52.188;21.024;2023-02-20T04:48:30;77699.88;;;-141.45;81.86
31403;BME280;18039;52.188;21.024;2023-02-20T04:50:58;77693.78;;;-141.45;81.83
31403;BME280;18039;52.188;21.024;2023-02-20T04:53:29;77687.69;;;-141.45;81.92
31403;BME280;18039;52.188;21.024;2023-02-20T04:55:57;77691.75;;;-141.45;82.35
31403;BME280;18039;52.188;21.024;2023-02-20T04:58:25;77691.75;;;-141.45;82.39
31403;BME280;18039;52.188;21.024;2023-02-20T05:01:03;77695.81;;;-141.45;82.68
31403;BME280;18039;52.188;21.024;2023-02-20T05:03:30;77683.66;;;-141.45;82.49
31403;BME280;18039;52.188;21.024;2023-02-20T05:05:57;77683.66;;;-141.45;82.54
31403;BME280;18039;52.188;21.024;2023-02-20T05:08:24;77667.44;;;-141.45;81.95
31403;BME280;18039;52.188;21.024;2023-02-20T05:10:51;77655.25;;;-141.45;82.14
31403;BME280;18039;52.188;21.024;2023-02-20T05:13:18;77667.44;;;-141.45;82.20
31403;BME280;18039;52.188;21.024;2023-02-20T05:15:45;77659.31;;;-141.45;82.77
31403;BME280;18039;52.188;21.024;2023-02-20T05:18:13;77651.19;;;-141.45;82.85
31403;BME280;18039;52.188;21.024;2023-02-20T05:20:40;77655.25;;;-141.45;83.21
31403;BME280;18039;52.188;21.024;2023-02-20T05:23:25;77647.16;;;-141.45;82.81
31403;BME280;18039;52.188;21.024;2023-02-20T05:25:52;77634.97;;;-141.45;82.66
31403;BME280;18039;52.188;21.024;2023-02-20T05:28:20;77630.94;;;-141.45;82.79
31403;BME280;18039;52.188;21.024;2023-02-20T05:30:47;77626.88;;;-141.45;82.85
31403;BME280;18039;52.188;21.024;2023-02-20T05:33:15;77685.69;;;-141.45;82.63
31403;BME280;18039;52.188;21.024;2023-02-20T05:35:42;77618.75;;;-141.45;82.88
31403;BME280;18039;52.188;21.024;2023-02-20T05:38:16;77628.91;;;-141.45;83.06
31403;BME280;18039;52.188;21.024;2023-02-20T05:40:43;77628.91;;;-141.45;83.27
31403;BME280;18039;52.188;21.024;2023-02-20T05:43:11;77618.75;;;-141.45;82.64
31403;BME280;18039;52.188;21.024;2023-02-20T05:45:37;77614.69;;;-141.45;82.46
31403;BME280;18039;52.188;21.024;2023-02-20T05:48:05;77614.69;;;-141.45;82.79
31403;BME280;18039;52.188;21.024;2023-02-20T05:50:32;77614.69;;;-141.45;82.76
31403;BME280;18039;52.188;21.024;2023-02-20T05:52:59;77586.31;;;-141.45;82.25
31403;BME280;18039;52.188;21.024;2023-02-20T05:55:26;77586.31;;;-141.45;81.86
31403;BME280;18039;52.188;21.024;2023-02-20T05:57:53;77594.44;;;-141.45;82.03
31403;BME280;18039;52.188;21.024;2023-02-20T06:00:20;77590.38;;;-141.45;81.50
31403;BME280;18039;52.188;21.024;2023-02-20T06:02:48;77570.09;;;-141.45;81.51
31403;BME280;18039;52.188;21.024;2023-02-20T06:05:15;77584.28;;;-141.45;81.74
31403;BME280;18039;52.188;21.024;2023-02-20T06:07:44;77582.25;;;-141.45;81.93
31403;BME280;18039;52.188;21.024;2023-02-20T06:10:13;77584.28;;;-141.45;81.90
31403;BME280;18039;52.188;21.024;2023-02-20T06:12:40;77582.25;;;-141.45;81.76
31403;BME280;18039;52.188;21.024;2023-02-20T06:15:08;77574.16;;;-141.45;81.77
31403;BME280;18039;52.188;21.024;2023-02-20T06:17:35;77561.97;;;-141.45;81.50
31403;BME280;18039;52.188;21.024;2023-02-20T06:20:02;77557.94;;;-141.45;82.00
31403;BME280;18039;52.188;21.024;2023-02-20T06:22:29;77553.88;;;-141.45;82.33
31403;BME280;18039;52.188;21.024;2023-02-20T06:24:56;77549.81;;;-141.45;82.28
31403;BME280;18039;52.188;21.024;2023-02-20T06:27:23;77537.66;;;-141.45;82.42
31403;BME280;18039;52.188;21.024;2023-02-20T06:29:51;77521.44;;;-141.45;81.59
31403;BME280;18039;52.188;21.024;2023-02-20T06:32:18;77517.38;;;-141.45;81.93
31403;BME280;18039;52.188;21.024;2023-02-20T06:34:45;77519.41;;;-141.45;82.03
31403;BME280;18039;52.188;21.024;2023-02-20T06:37:13;77513.31;;;-141.45;81.81
31403;BME280;18039;52.188;21.024;2023-02-20T06:39:40;77497.09;;;-141.45;82.14
31403;BME280;18039;52.188;21.024;2023-02-20T06:42:09;77480.88;;;-141.45;81.91
31403;BME280;18039;52.188;21.024;2023-02-20T06:44:36;77480.88;;;-141.45;81.70
31403;BME280;18039;52.188;21.024;2023-02-20T06:47:04;77476.81;;;-141.45;81.32
31403;BME280;18039;52.188;21.024;2023-02-20T06:49:35;77462.63;;;-141.45;81.17
31403;BME280;18039;52.188;21.024;2023-02-20T06:52:04;77460.59;;;-141.45;81.22
31403;BME280;18039;52.188;21.024;2023-02-20T06:54:31;77440.31;;;-141.45;80.62
31403;BME280;18039;52.188;21.024;2023-02-20T06:57:00;77436.28;;;-141.45;80.85
31403;BME280;18039;52.188;21.024;2023-02-20T06:59:27;77420.06;;;-141.45;80.60
31403;BME280;18039;52.188;21.024;2023-02-20T07:01:55;77418.03;;;-141.45;80.03
31403;BME280;18039;52.188;21.024;2023-02-20T07:04:24;77416.00;;;-141.45;81.09
31403;BME280;18039;52.188;21.024;2023-02-20T07:06:55;77411.94;;;-141.45;81.34
31403;BME280;18039;52.188;21.024;2023-02-20T07:09:22;77399.78;;;-141.45;81.06
31403;BME280;18039;52.188;21.024;2023-02-20T07:11:52;77383.56;;;-141.45;80.74
31403;BME280;18039;52.188;21.024;2023-02-20T07:14:19;77387.59;;;-141.45;80.41
31403;BME280;18039;52.188;21.024;2023-02-20T07:16:47;77363.28;;;-141.45;79.73
31403;BME280;18039;52.188;21.024;2023-02-20T07:19:14;77351.13;;;-141.45;79.40
31403;BME280;18039;52.188;21.024;2023-02-20T07:21:41;77359.22;;;-141.45;79.48
31403;BME280;18039;52.188;21.024;2023-02-20T07:24:08;77347.06;;;-141.45;79.54
31403;BME280;18039;52.188;21.024;2023-02-20T07:26:35;77326.78;;;-141.45;79.23
31403;BME280;18039;52.188;21.024;2023-02-20T07:29:05;77330.84;;;-141.45;79.55
31403;BME280;18039;52.188;21.024;2023-02-20T07:31:33;77326.78;;;-141.45;79.55
31403;BME280;18039;52.188;21.024;2023-02-20T07:34:00;77316.66;;;-141.45;79.48
31403;BME280;18039;52.188;21.024;2023-02-20T07:36:34;77298.41;;;-141.45;79.70
31403;BME280;18039;52.188;21.024;2023-02-20T07:39:03;77265.97;;;-141.45;81.95
31403;BME280;18039;52.188;21.024;2023-02-20T07:41:33;77257.84;;;-141.45;79.35
31403;BME280;18039;52.188;21.024;2023-02-20T07:44:05;77265.97;;;-141.45;77.99
31403;BME280;18039;52.188;21.024;2023-02-20T07:46:33;77257.84;;;-141.45;78.08
31403;BME280;18039;52.188;21.024;2023-02-20T07:49:01;77286.22;;;-141.45;78.67
31403;BME280;18039;52.188;21.024;2023-02-20T07:51:29;77282.19;;;-141.45;78.70
31403;BME280;18039;52.188;21.024;2023-02-20T07:53:56;77265.97;;;-141.45;78.56
31403;BME280;18039;52.188;21.024;2023-02-20T07:56:24;77241.63;;;-141.45;79.01
31403;BME280;18039;52.188;21.024;2023-02-20T07:58:51;77229.47;;;-141.45;78.87
31403;BME280;18039;52.188;21.024;2023-02-20T08:01:19;77209.19;;;-141.45;78.51
31403;BME280;18039;52.188;21.024;2023-02-20T08:03:46;77197.03;;;-141.45;77.57
31403;BME280;18039;52.188;21.024;2023-02-20T08:06:18;77197.03;;;-141.45;77.99
31403;BME280;18039;52.188;21.024;2023-02-20T08:08:48;77180.81;;;-141.45;78.06
31403;BME280;18039;52.188;21.024;2023-02-20T08:11:21;77160.53;;;-141.45;77.46
31403;BME280;18039;52.188;21.024;2023-02-20T08:13:48;77136.19;;;-141.45;77.16
31403;BME280;18039;52.188;21.024;2023-02-20T08:16:15;77119.97;;;-141.45;77.55
31403;BME280;18039;52.188;21.024;2023-02-20T08:18:43;77128.09;;;-141.45;76.87
31403;BME280;18039;52.188;21.024;2023-02-20T08:21:10;77119.97;;;-141.45;76.98
31403;BME280;18039;52.188;21.024;2023-02-20T08:23:37;77105.78;;;-141.45;77.10
31403;BME280;18039;52.188;21.024;2023-02-20T08:26:05;77115.94;;;-141.45;77.33
31403;BME280;18039;52.188;21.024;2023-02-20T08:28:32;77115.94;;;-141.45;78.15
31403;BME280;18039;52.188;21.024;2023-02-20T08:30:59;77115.94;;;-141.45;79.05
31403;BME280;18039;52.188;21.024;2023-02-20T08:33:26;77097.69;;;-141.45;79.65
31403;BME280;18039;52.188;21.024;2023-02-20T08:35:54;77087.53;;;-141.45;79.65
31403;BME280;18039;52.188;21.024;2023-02-20T08:38:27;77095.66;;;-141.45;79.67
31403;BME280;18039;52.188;21.024;2023-02-20T08:40:54;77095.66;;;-141.45;80.43
31403;BME280;18039;52.188;21.024;2023-02-20T08:43:22;77107.81;;;-141.45;80.11
31403;BME280;18039;52.188;21.024;2023-02-20T08:45:49;77132.16;;;-141.45;82.08
31403;BME280;18039;52.188;21.024;2023-02-20T08:48:16;77128.09;;;-141.45;82.27
31403;BME280;18039;52.188;21.024;2023-02-20T08:50:44;77148.38;;;-141.45;84.84
31403;BME280;18039;52.188;21.024;2023-02-20T08:53:13;77160.53;;;-141.45;85.15
31403;BME280;18039;52.188;21.024;2023-02-20T08:55:41;77195.00;;;-141.45;87.07
31403;BME280;18039;52.188;21.024;2023-02-20T08:58:09;77213.25;;;-141.45;88.81
31403;BME280;18039;52.188;21.024;2023-02-20T09:00:36;77221.34;;;-141.45;91.13
31403;BME280;18039;52.188;21.024;2023-02-20T09:03:04;77231.50;;;-141.45;93.47
31403;BME280;18039;52.188;21.024;2023-02-20T09:05:36;77221.34;;;-141.45;94.06
31403;BME280;18039;52.188;21.024;2023-02-20T09:08:40;77221.34;;;-141.45;95.26
31403;BME280;18039;52.188;21.024;2023-02-20T09:11:07;77215.28;;;-141.45;96.13
31403;BME280;18039;52.188;21.024;2023-02-20T09:13:45;77229.47;;;-141.45;97.03
31403;BME280;18039;52.188;21.024;2023-02-20T09:16:18;77217.28;;;-141.45;97.79
31403;BME280;18039;52.188;21.024;2023-02-20T09:18:45;77211.22;;;-141.45;98.14
31403;BME280;18039;52.188;21.024;2023-02-20T09:21:16;77209.19;;;-141.45;98.98
31403;BME280;18039;52.188;21.024;2023-02-20T09:23:46;77203.09;;;-141.45;99.59
31403;BME280;18039;52.188;21.024;2023-02-20T09:26:13;77197.03;;;-141.45;99.87
31403;BME280;18039;52.188;21.024;2023-02-20T09:28:41;77176.75;;;-141.45;100.00
31403;BME280;18039;52.188;21.024;2023-02-20T09:31:09;77180.81;;;-141.45;100.00
31403;BME280;18039;52.188;21.024;2023-02-20T09:33:36;77180.81;;;-141.45;100.00
31403;BME280;18039;52.188;21.024;2023-02-20T09:36:04;77172.69;;;-141.45;100.00
31403;BME280;18039;52.188;21.024;2023-02-20T09:38:31;77172.69;;;-141.45;100.00
31403;BME280;18039;52.188;21.024;2023-02-20T09:40:59;77160.53;;;-141.45;100.00
31403;BME280;18039;52.188;21.024;2023-02-20T09:46:44;77134.16;;;-141.45;100.00
31403;BME280;18039;52.188;21.024;2023-02-20T09:49:13;77124.03;;;-141.45;100.00
31403;BME280;18039;52.188;21.024;2023-02-20T09:51:45;77132.16;;;-141.45;100.00
31403;BME280;18039;52.188;21.024;2023-02-20T09:54:21;77122.00;;;-141.45;100.00
31403;BME280;18039;52.188;21.024;2023-02-20T09:56:55;77107.81;;;-141.45;100.00
31403;BME280;18039;52.188;21.024;2023-02-20T09:59:27;77095.66;;;-141.45;100.00
31403;BME280;18039;52.188;21.024;2023-02-20T10:02:17;77093.63;;;-141.45;100.00
31403;BME280;18039;52.188;21.024;2023-02-20T10:04:48;77089.56;;;-141.45;100.00
31403;BME280;18039;52.188;21.024;2023-02-20T10:07:33;77087.53;;;-141.45;100.00
31403;BME280;18039;52.188;21.024;2023-02-20T10:10:16;77091.59;;;-141.45;100.00
31403;BME280;18039;52.188;21.024;2023-02-20T10:18:39;77128.09;;;-141.45;100.00
31403;BME280;18039;52.188;21.024;2023-02-20T10:24:34;77144.31;;;-141.45;100.00
31403;BME280;18039;52.188;21.024;2023-02-20T10:29:44;77158.50;;;-141.45;100.00
31403;BME280;18039;52.188;21.024;2023-02-20T10:32:17;77168.63;;;-141.45;100.00
31403;BME280;18039;52.188;21.024;2023-02-20T10:35:03;77168.63;;;-141.45;100.00
31403;BME280;18039;52.188;21.024;2023-02-20T10:37:37;77164.59;;;-141.45;100.00
31403;BME280;18039;52.188;21.024;2023-02-20T10:42:53;77148.38;;;-141.45;100.00
31403;BME280;18039;52.188;21.024;2023-02-20T10:48:30;77192.97;;;-141.45;100.00
31403;BME280;18039;52.188;21.024;2023-02-20T10:51:09;77152.41;;;-141.45;100.00
31403;BME280;18039;52.188;21.024;2023-02-20T10:56:29;77132.16;;;-141.45;100.00
31403;BME280;18039;52.188;21.024;2023-02-20T10:59:22;77124.03;;;-141.45;100.00
31403;BME280;18039;52.188;21.024;2023-02-20T11:01:55;77124.03;;;-141.45;100.00
31403;BME280;18039;52.188;21.024;2023-02-20T11:04:27;77099.72;;;-141.45;100.00
31403;BME280;18039;52.188;21.024;2023-02-20T11:07:09;77099.72;;;-141.45;100.00
31403;BME280;18039;52.188;21.024;2023-02-20T11:09:39;77095.66;;;-141.45;100.00
31403;BME280;18039;52.188;21.024;2023-02-20T11:12:20;77097.69;;;-141.45;100.00
31403;BME280;18039;52.188;21.024;2023-02-20T11:14:50;77089.56;;;-141.45;100.00
31403;BME280;18039;52.188;21.024;2023-02-20T11:17:20;77083.50;;;-141.45;100.00
31403;BME280;18039;52.188;21.024;2023-02-20T11:19:59;77075.38;;;-141.45;100.00
31403;BME280;18039;52.188;21.024;2023-02-20T11:22:57;77065.25;;;-141.45;100.00
31403;BME280;18039;52.188;21.024;2023-02-20T11:25:35;77038.88;;;-141.45;100.00
31403;BME280;18039;52.188;21.024;2023-02-20T11:28:23;77022.66;;;-141.45;100.00
31403;BME280;18039;52.188;21.024;2023-02-20T11:31:04;76949.69;;;-141.45;100.00
31403;BME280;18039;52.188;21.024;2023-02-20T11:33:35;76990.22;;;-141.45;100.00
31403;BME280;18039;52.188;21.024;2023-02-20T11:36:16;76984.16;;;-141.45;100.00
31403;BME280;18039;52.188;21.024;2023-02-20T11:38:47;76963.88;;;-141.45;100.00
31403;BME280;18039;52.188;21.024;2023-02-20T11:41:23;76941.56;;;-141.45;100.00
31403;BME280;18039;52.188;21.024;2023-02-20T11:44:19;76933.47;;;-141.45;100.00
31403;BME280;18039;52.188;21.024;2023-02-20T11:47:07;76925.34;;;-141.45;100.00
31403;BME280;18039;52.188;21.024;2023-02-20T11:49:35;76890.88;;;-141.45;100.00
31403;BME280;18039;52.188;21.024;2023-02-20T11:52:16;76868.59;;;-141.45;100.00
31403;BME280;18039;52.188;21.024;2023-02-20T11:54:46;76854.41;;;-141.45;100.00
31403;BME280;18039;52.188;21.024;2023-02-20T11:57:28;76836.16;;;-141.45;100.00
31403;BME280;18039;52.188;21.024;2023-02-20T12:00:19;76830.06;;;-141.45;100.00
31403;BME280;18039;52.188;21.024;2023-02-20T12:05:46;76795.59;;;-141.45;100.00
31403;BME280;18039;52.188;21.024;2023-02-20T12:11:23;76746.97;;;-141.45;100.00
31403;BME280;18039;52.188;21.024;2023-02-20T12:13:54;76726.69;;;-141.45;100.00
31403;BME280;18039;52.188;21.024;2023-02-20T12:21:45;76641.53;;;-141.45;100.00
31403;BME280;18039;52.188;21.024;2023-02-20T12:26:59;76601.00;;;-141.45;100.00
31403;BME280;18039;52.188;21.024;2023-02-20T12:56:05;76495.59;;;-141.45;100.00
31403;BME280;18039;52.188;21.024;2023-02-20T12:58:37;76511.81;;;-141.45;100.00
31403;BME280;18039;52.188;21.024;2023-02-20T13:01:14;76473.28;;;-141.45;100.00
31403;BME280;18039;52.188;21.024;2023-02-20T13:06:45;76485.47;;;-141.45;100.00
31403;BME280;18039;52.188;21.024;2023-02-20T13:11:42;76491.53;;;-141.45;100.00
31403;BME280;18039;52.188;21.024;2023-02-20T13:17:16;76475.31;;;-141.45;100.00
31403;BME280;18039;52.188;21.024;2023-02-20T13:20:00;76461.13;;;-141.45;100.00
31403;BME280;18039;52.188;21.024;2023-02-20T13:22:31;76430.72;;;-141.45;100.00
31403;BME280;18039;52.188;21.024;2023-02-20T13:33:44;76410.47;;;-141.45;100.00
31403;BME280;18039;52.188;21.024;2023-02-20T13:47:00;76337.50;;;-141.45;100.00
31403;BME280;18039;52.188;21.024;2023-02-20T13:52:40;76317.22;;;-141.45;100.00
31403;BME280;18039;52.188;21.024;2023-02-20T13:57:47;76268.56;;;-141.45;100.00
31403;BME280;18039;52.188;21.024;2023-02-20T14:02:57;76236.16;;;-141.45;100.00
31403;BME280;18039;52.188;21.024;2023-02-20T14:05:28;76223.97;;;-141.45;99.65
31403;BME280;18039;52.188;21.024;2023-02-20T14:07:58;76223.97;;;-141.45;98.73
31403;BME280;18039;52.188;21.024;2023-02-20T14:12:58;76187.50;;;-141.45;97.87
31403;BME280;18039;52.188;21.024;2023-02-20T14:15:27;76171.28;;;-141.45;96.49
31403;BME280;18039;52.188;21.024;2023-02-20T14:17:57;76183.44;;;-141.45;97.18
31403;BME280;18039;52.188;21.024;2023-02-20T14:20:34;76175.34;;;-141.45;96.86
31403;BME280;18039;52.188;21.024;2023-02-20T14:23:08;76171.28;;;-141.45;96.98
31403;BME280;18039;52.188;21.024;2023-02-20T14:25:36;76163.19;;;-141.45;97.16
31403;BME280;18039;52.188;21.024;2023-02-20T14:28:09;76155.06;;;-141.45;97.51
31403;BME280;18039;52.188;21.024;2023-02-20T14:30:37;76134.78;;;-141.45;96.98
31403;BME280;18039;52.188;21.024;2023-02-20T14:33:23;76136.81;;;-141.45;96.58
31403;BME280;18039;52.188;21.024;2023-02-20T14:39:23;76112.50;;;-141.45;95.73
31403;BME280;18039;52.188;21.024;2023-02-20T14:42:00;76114.53;;;-141.45;95.62
31403;BME280;18039;52.188;21.024;2023-02-20T14:44:30;76082.09;;;-141.45;95.24
31403;BME280;18039;52.188;21.024;2023-02-20T14:47:07;76074.00;;;-141.45;94.68
31403;BME280;18039;52.188;21.024;2023-02-20T14:49:35;76053.72;;;-141.45;94.96
31403;BME280;18039;52.188;21.024;2023-02-20T14:54:38;76037.50;;;-141.45;93.75
31403;BME280;18039;52.188;21.024;2023-02-20T14:57:06;76049.69;;;-141.45;93.54
31403;BME280;18039;52.188;21.024;2023-02-20T14:59:36;76025.34;;;-141.45;93.26
31403;BME280;18039;52.188;21.024;2023-02-20T15:04:32;76001.03;;;-141.45;92.39
31403;BME280;18039;52.188;21.024;2023-02-20T15:07:03;76001.03;;;-141.45;93.21
31403;BME280;18039;52.188;21.024;2023-02-20T15:09:40;76005.09;;;-141.45;92.69
31403;BME280;18039;52.188;21.024;2023-02-20T15:12:22;75996.97;;;-141.45;92.35